sensor_id;sensor_type;location;lat;lon;timestamp;P1;durP1;ratioP1;P2;durP2;ratioP2
19969;SDS011;10146;47.754;9.566;2022-10-16T00:01:16;8.45;;;3.33;;
19969;SDS011;10146;47.754;9.566;2022-10-16T00:03:44;8.82;;;3.10;;
19969;SDS011;10146;47.754;9.566;2022-10-16T00:06:10;7.47;;;3.10;;
19969;SDS011;10146;47.754;9.566;2022-10-16T00:08:37;10.82;;;3.42;;
19969;SDS011;10146;47.754;9.566;2022-10-16T00:11:04;10.75;;;3.35;;
19969;SDS011;10146;47.754;9.566;2022-10-16T00:13:33;8.40;;;3.28;;
19969;SDS011;10146;47.754;9.566;2022-10-16T00:16:01;14.35;;;3.95;;
19969;SDS011;10146;47.754;9.566;2022-10-16T00:18:27;11.13;;;3.72;;
19969;SDS011;10146;47.754;9.566;2022-10-16T00:20:54;14.95;;;3.80;;
19969;SDS011;10146;47.754;9.566;2022-10-16T00:23:20;15.70;;;3.25;;
19969;SDS011;10146;47.754;9.566;2022-10-16T00:25:54;4.75;;;3.05;;
19969;SDS011;10146;47.754;9.566;2022-10-16T00:28:23;9.07;;;3.47;;
19969;SDS011;10146;47.754;9.566;2022-10-16T00:30:49;8.23;;;3.45;;
19969;SDS011;10146;47.754;9.566;2022-10-16T00:33:15;8.90;;;3.40;;
19969;SDS011;10146;47.754;9.566;2022-10-16T00:35:40;8.68;;;3.38;;
19969;SDS011;10146;47.754;9.566;2022-10-16T00:38:06;9.73;;;3.53;;
19969;SDS011;10146;47.754;9.566;2022-10-16T00:40:31;15.95;;;3.67;;
19969;SDS011;10146;47.754;9.566;2022-10-16T00:42:57;12.45;;;3.45;;
19969;SDS011;10146;47.754;9.566;2022-10-16T00:45:23;10.02;;;3.60;;
19969;SDS011;10146;47.754;9.566;2022-10-16T00:47:49;10.55;;;3.60;;
19969;SDS011;10146;47.754;9.566;2022-10-16T00:52:56;11.73;;;3.13;;
19969;SDS011;10146;47.754;9.566;2022-10-16T00:55:24;8.90;;;3.30;;
19969;SDS011;10146;47.754;9.566;2022-10-16T00:57:51;7.97;;;3.65;;
19969;SDS011;10146;47.754;9.566;2022-10-16T01:00:19;15.80;;;3.53;;
19969;SDS011;10146;47.754;9.566;2022-10-16T01:02:58;9.00;;;3.60;;
19969;SDS011;10146;47.754;9.566;2022-10-16T01:05:43;13.05;;;3.70;;
19969;SDS011;10146;47.754;9.566;2022-10-16T01:08:26;9.40;;;3.50;;
19969;SDS011;10146;47.754;9.566;2022-10-16T01:11:10;11.13;;;3.42;;
19969;SDS011;10146;47.754;9.566;2022-10-16T01:13:54;5.40;;;3.53;;
19969;SDS011;10146;47.754;9.566;2022-10-16T01:16:29;6.53;;;3.38;;
19969;SDS011;10146;47.754;9.566;2022-10-16T01:19:05;5.82;;;3.20;;
19969;SDS011;10146;47.754;9.566;2022-10-16T01:21:40;13.40;;;3.47;;
19969;SDS011;10146;47.754;9.566;2022-10-16T01:27:13;7.32;;;3.30;;
19969;SDS011;10146;47.754;9.566;2022-10-16T01:32:47;10.55;;;3.92;;
19969;SDS011;10146;47.754;9.566;2022-10-16T01:35:18;8.43;;;3.85;;
19969;SDS011;10146;47.754;9.566;2022-10-16T01:40:18;17.60;;;3.35;;
19969;SDS011;10146;47.754;9.566;2022-10-16T01:42:51;9.85;;;3.08;;
19969;SDS011;10146;47.754;9.566;2022-10-16T01:45:20;10.10;;;3.17;;
19969;SDS011;10146;47.754;9.566;2022-10-16T01:47:47;4.18;;;2.90;;
19969;SDS011;10146;47.754;9.566;2022-10-16T01:50:15;10.27;;;3.35;;
19969;SDS011;10146;47.754;9.566;2022-10-16T01:52:43;12.43;;;3.35;;
19969;SDS011;10146;47.754;9.566;2022-10-16T01:55:12;10.13;;;3.15;;
19969;SDS011;10146;47.754;9.566;2022-10-16T01:57:44;9.15;;;3.08;;
19969;SDS011;10146;47.754;9.566;2022-10-16T02:00:13;11.75;;;3.53;;
19969;SDS011;10146;47.754;9.566;2022-10-16T02:02:42;8.70;;;3.00;;
19969;SDS011;10146;47.754;9.566;2022-10-16T02:05:14;6.88;;;2.85;;
19969;SDS011;10146;47.754;9.566;2022-10-16T02:07:53;8.13;;;2.78;;
19969;SDS011;10146;47.754;9.566;2022-10-16T02:10:19;8.57;;;3.13;;
19969;SDS011;10146;47.754;9.566;2022-10-16T02:15:37;11.15;;;3.28;;
19969;SDS011;10146;47.754;9.566;2022-10-16T02:18:04;13.18;;;2.95;;
19969;SDS011;10146;47.754;9.566;2022-10-16T02:20:32;11.88;;;3.10;;
19969;SDS011;10146;47.754;9.566;2022-10-16T02:23:04;13.40;;;3.05;;
19969;SDS011;10146;47.754;9.566;2022-10-16T02:25:32;11.43;;;3.22;;
19969;SDS011;10146;47.754;9.566;2022-10-16T02:28:01;7.70;;;2.92;;
19969;SDS011;10146;47.754;9.566;2022-10-16T02:30:39;12.85;;;3.47;;
19969;SDS011;10146;47.754;9.566;2022-10-16T02:33:16;8.52;;;3.60;;
19969;SDS011;10146;47.754;9.566;2022-10-16T02:35:46;18.30;;;3.63;;
19969;SDS011;10146;47.754;9.566;2022-10-16T02:38:14;10.23;;;3.30;;
19969;SDS011;10146;47.754;9.566;2022-10-16T02:40:41;5.72;;;2.95;;
19969;SDS011;10146;47.754;9.566;2022-10-16T02:43:07;14.23;;;4.32;;
19969;SDS011;10146;47.754;9.566;2022-10-16T02:45:34;9.52;;;2.80;;
19969;SDS011;10146;47.754;9.566;2022-10-16T02:48:00;6.18;;;3.10;;
19969;SDS011;10146;47.754;9.566;2022-10-16T02:50:25;10.90;;;3.03;;
19969;SDS011;10146;47.754;9.566;2022-10-16T02:52:51;11.27;;;3.13;;
19969;SDS011;10146;47.754;9.566;2022-10-16T02:55:17;10.52;;;3.03;;
19969;SDS011;10146;47.754;9.566;2022-10-16T02:57:42;7.15;;;3.00;;
19969;SDS011;10146;47.754;9.566;2022-10-16T03:00:12;12.57;;;2.90;;
19969;SDS011;10146;47.754;9.566;2022-10-16T03:02:39;6.35;;;3.00;;
19969;SDS011;10146;47.754;9.566;2022-10-16T03:05:05;10.15;;;3.30;;
19969;SDS011;10146;47.754;9.566;2022-10-16T03:07:30;5.68;;;3.30;;
19969;SDS011;10146;47.754;9.566;2022-10-16T03:09:56;7.50;;;3.15;;
19969;SDS011;10146;47.754;9.566;2022-10-16T03:12:25;6.47;;;3.10;;
19969;SDS011;10146;47.754;9.566;2022-10-16T03:14:51;6.80;;;3.45;;
19969;SDS011;10146;47.754;9.566;2022-10-16T03:17:16;4.72;;;3.30;;
19969;SDS011;10146;47.754;9.566;2022-10-16T03:19:42;5.03;;;3.13;;
19969;SDS011;10146;47.754;9.566;2022-10-16T03:22:08;6.68;;;3.63;;
19969;SDS011;10146;47.754;9.566;2022-10-16T03:24:33;13.88;;;3.85;;
19969;SDS011;10146;47.754;9.566;2022-10-16T03:26:59;12.07;;;4.80;;
19969;SDS011;10146;47.754;9.566;2022-10-16T03:29:25;12.13;;;4.38;;
19969;SDS011;10146;47.754;9.566;2022-10-16T03:31:52;8.60;;;4.00;;
19969;SDS011;10146;47.754;9.566;2022-10-16T03:34:18;8.68;;;3.30;;
19969;SDS011;10146;47.754;9.566;2022-10-16T03:36:43;11.43;;;3.42;;
19969;SDS011;10146;47.754;9.566;2022-10-16T03:39:09;9.00;;;3.50;;
19969;SDS011;10146;47.754;9.566;2022-10-16T03:41:34;7.93;;;3.33;;
19969;SDS011;10146;47.754;9.566;2022-10-16T03:44:00;8.98;;;3.58;;
19969;SDS011;10146;47.754;9.566;2022-10-16T03:46:25;6.13;;;3.42;;
19969;SDS011;10146;47.754;9.566;2022-10-16T03:48:52;8.95;;;3.63;;
19969;SDS011;10146;47.754;9.566;2022-10-16T03:51:17;10.07;;;3.90;;
19969;SDS011;10146;47.754;9.566;2022-10-16T03:53:43;9.13;;;3.50;;
19969;SDS011;10146;47.754;9.566;2022-10-16T03:56:08;11.88;;;4.10;;
19969;SDS011;10146;47.754;9.566;2022-10-16T03:58:34;4.57;;;3.10;;
19969;SDS011;10146;47.754;9.566;2022-10-16T04:00:59;9.85;;;4.05;;
19969;SDS011;10146;47.754;9.566;2022-10-16T04:03:25;6.85;;;3.75;;
19969;SDS011;10146;47.754;9.566;2022-10-16T04:05:51;9.93;;;3.00;;
19969;SDS011;10146;47.754;9.566;2022-10-16T04:08:16;10.45;;;3.38;;
19969;SDS011;10146;47.754;9.566;2022-10-16T04:10:43;10.70;;;3.78;;
19969;SDS011;10146;47.754;9.566;2022-10-16T04:13:08;8.18;;;3.33;;
19969;SDS011;10146;47.754;9.566;2022-10-16T04:15:34;8.05;;;3.58;;
19969;SDS011;10146;47.754;9.566;2022-10-16T04:18:00;8.20;;;3.72;;
19969;SDS011;10146;47.754;9.566;2022-10-16T04:20:26;15.07;;;4.30;;
19969;SDS011;10146;47.754;9.566;2022-10-16T04:22:51;7.63;;;3.95;;
19969;SDS011;10146;47.754;9.566;2022-10-16T04:25:17;7.97;;;3.70;;
19969;SDS011;10146;47.754;9.566;2022-10-16T04:27:42;9.35;;;3.55;;
19969;SDS011;10146;47.754;9.566;2022-10-16T04:30:08;12.10;;;3.60;;
19969;SDS011;10146;47.754;9.566;2022-10-16T04:32:34;8.32;;;3.85;;
19969;SDS011;10146;47.754;9.566;2022-10-16T04:34:59;12.95;;;3.50;;
19969;SDS011;10146;47.754;9.566;2022-10-16T04:37:25;8.23;;;3.38;;
19969;SDS011;10146;47.754;9.566;2022-10-16T04:39:52;9.45;;;3.50;;
19969;SDS011;10146;47.754;9.566;2022-10-16T04:42:19;6.68;;;3.33;;
19969;SDS011;10146;47.754;9.566;2022-10-16T04:44:45;10.48;;;3.53;;
19969;SDS011;10146;47.754;9.566;2022-10-16T04:47:10;13.35;;;3.58;;
19969;SDS011;10146;47.754;9.566;2022-10-16T04:49:36;8.50;;;2.70;;
19969;SDS011;10146;47.754;9.566;2022-10-16T04:52:02;8.70;;;3.88;;
19969;SDS011;10146;47.754;9.566;2022-10-16T04:54:27;7.38;;;3.03;;
19969;SDS011;10146;47.754;9.566;2022-10-16T04:56:53;7.22;;;3.30;;
19969;SDS011;10146;47.754;9.566;2022-10-16T04:59:19;12.73;;;3.60;;
19969;SDS011;10146;47.754;9.566;2022-10-16T05:01:45;5.55;;;3.13;;
19969;SDS011;10146;47.754;9.566;2022-10-16T05:04:11;7.78;;;2.72;;
19969;SDS011;10146;47.754;9.566;2022-10-16T05:06:36;7.15;;;3.22;;
19969;SDS011;10146;47.754;9.566;2022-10-16T05:09:03;7.55;;;2.90;;
19969;SDS011;10146;47.754;9.566;2022-10-16T05:11:32;10.68;;;3.78;;
19969;SDS011;10146;47.754;9.566;2022-10-16T05:13:58;9.20;;;3.60;;
19969;SDS011;10146;47.754;9.566;2022-10-16T05:16:23;7.22;;;2.72;;
19969;SDS011;10146;47.754;9.566;2022-10-16T05:18:49;11.40;;;3.17;;
19969;SDS011;10146;47.754;9.566;2022-10-16T05:21:16;7.85;;;2.92;;
19969;SDS011;10146;47.754;9.566;2022-10-16T05:23:42;6.95;;;2.55;;
19969;SDS011;10146;47.754;9.566;2022-10-16T05:26:08;10.15;;;4.03;;
19969;SDS011;10146;47.754;9.566;2022-10-16T05:28:33;8.63;;;2.72;;
19969;SDS011;10146;47.754;9.566;2022-10-16T05:30:59;9.60;;;2.67;;
19969;SDS011;10146;47.754;9.566;2022-10-16T05:33:28;6.93;;;3.03;;
19969;SDS011;10146;47.754;9.566;2022-10-16T05:35:54;6.85;;;2.63;;
19969;SDS011;10146;47.754;9.566;2022-10-16T05:38:19;6.57;;;2.58;;
19969;SDS011;10146;47.754;9.566;2022-10-16T05:40:51;2.95;;;2.55;;
19969;SDS011;10146;47.754;9.566;2022-10-16T05:43:21;12.50;;;3.40;;
19969;SDS011;10146;47.754;9.566;2022-10-16T05:45:53;12.35;;;3.20;;
19969;SDS011;10146;47.754;9.566;2022-10-16T05:48:25;9.00;;;2.75;;
19969;SDS011;10146;47.754;9.566;2022-10-16T05:50:58;10.55;;;2.83;;
19969;SDS011;10146;47.754;9.566;2022-10-16T05:53:28;22.52;;;3.88;;
19969;SDS011;10146;47.754;9.566;2022-10-16T05:55:55;10.13;;;2.85;;
19969;SDS011;10146;47.754;9.566;2022-10-16T05:58:21;10.35;;;2.97;;
19969;SDS011;10146;47.754;9.566;2022-10-16T06:00:57;12.75;;;3.10;;
19969;SDS011;10146;47.754;9.566;2022-10-16T06:03:25;11.57;;;3.08;;
19969;SDS011;10146;47.754;9.566;2022-10-16T06:05:51;9.55;;;2.58;;
19969;SDS011;10146;47.754;9.566;2022-10-16T06:08:18;13.18;;;3.35;;
19969;SDS011;10146;47.754;9.566;2022-10-16T06:10:44;7.32;;;2.63;;
19969;SDS011;10146;47.754;9.566;2022-10-16T06:13:11;8.43;;;2.55;;
19969;SDS011;10146;47.754;9.566;2022-10-16T06:15:37;10.25;;;2.75;;
19969;SDS011;10146;47.754;9.566;2022-10-16T06:18:04;11.02;;;2.78;;
19969;SDS011;10146;47.754;9.566;2022-10-16T06:20:30;9.75;;;2.97;;
19969;SDS011;10146;47.754;9.566;2022-10-16T06:22:56;12.30;;;2.30;;
19969;SDS011;10146;47.754;9.566;2022-10-16T06:25:22;11.77;;;2.50;;
19969;SDS011;10146;47.754;9.566;2022-10-16T06:27:47;7.70;;;2.80;;
19969;SDS011;10146;47.754;9.566;2022-10-16T06:30:13;7.07;;;2.13;;
19969;SDS011;10146;47.754;9.566;2022-10-16T06:32:39;10.77;;;2.80;;
19969;SDS011;10146;47.754;9.566;2022-10-16T06:35:04;9.05;;;2.60;;
19969;SDS011;10146;47.754;9.566;2022-10-16T06:37:30;10.13;;;2.40;;
19969;SDS011;10146;47.754;9.566;2022-10-16T06:39:55;5.95;;;2.30;;
19969;SDS011;10146;47.754;9.566;2022-10-16T06:42:21;8.55;;;2.30;;
19969;SDS011;10146;47.754;9.566;2022-10-16T06:44:47;6.78;;;2.55;;
19969;SDS011;10146;47.754;9.566;2022-10-16T06:47:12;9.00;;;2.72;;
19969;SDS011;10146;47.754;9.566;2022-10-16T06:49:38;7.97;;;2.80;;
19969;SDS011;10146;47.754;9.566;2022-10-16T06:52:03;5.35;;;2.78;;
19969;SDS011;10146;47.754;9.566;2022-10-16T06:54:29;8.88;;;3.92;;
19969;SDS011;10146;47.754;9.566;2022-10-16T06:56:55;7.90;;;3.67;;
19969;SDS011;10146;47.754;9.566;2022-10-16T06:59:21;8.73;;;2.95;;
19969;SDS011;10146;47.754;9.566;2022-10-16T07:01:46;5.32;;;2.67;;
19969;SDS011;10146;47.754;9.566;2022-10-16T07:04:12;4.18;;;2.60;;
19969;SDS011;10146;47.754;9.566;2022-10-16T07:06:38;6.15;;;2.42;;
19969;SDS011;10146;47.754;9.566;2022-10-16T07:09:04;5.15;;;2.70;;
19969;SDS011;10146;47.754;9.566;2022-10-16T07:11:34;9.07;;;3.33;;
19969;SDS011;10146;47.754;9.566;2022-10-16T07:14:00;9.55;;;3.28;;
19969;SDS011;10146;47.754;9.566;2022-10-16T07:16:27;4.60;;;3.03;;
19969;SDS011;10146;47.754;9.566;2022-10-16T07:18:55;8.25;;;3.08;;
19969;SDS011;10146;47.754;9.566;2022-10-16T07:21:25;6.13;;;2.90;;
19969;SDS011;10146;47.754;9.566;2022-10-16T07:23:54;8.20;;;2.50;;
19969;SDS011;10146;47.754;9.566;2022-10-16T07:26:22;4.38;;;2.38;;
19969;SDS011;10146;47.754;9.566;2022-10-16T07:28:48;8.05;;;2.22;;
19969;SDS011;10146;47.754;9.566;2022-10-16T07:31:14;3.45;;;2.03;;
19969;SDS011;10146;47.754;9.566;2022-10-16T07:33:42;6.82;;;2.15;;
19969;SDS011;10146;47.754;9.566;2022-10-16T07:36:09;4.97;;;2.13;;
19969;SDS011;10146;47.754;9.566;2022-10-16T07:38:38;5.43;;;2.00;;
19969;SDS011;10146;47.754;9.566;2022-10-16T07:41:05;2.25;;;1.75;;
19969;SDS011;10146;47.754;9.566;2022-10-16T07:43:32;5.07;;;1.85;;
19969;SDS011;10146;47.754;9.566;2022-10-16T07:45:58;5.80;;;2.20;;
19969;SDS011;10146;47.754;9.566;2022-10-16T07:48:26;7.40;;;1.83;;
19969;SDS011;10146;47.754;9.566;2022-10-16T07:50:56;4.30;;;3.10;;
19969;SDS011;10146;47.754;9.566;2022-10-16T07:53:26;8.23;;;4.10;;
19969;SDS011;10146;47.754;9.566;2022-10-16T07:55:52;4.50;;;2.75;;
19969;SDS011;10146;47.754;9.566;2022-10-16T07:58:22;6.25;;;2.30;;
19969;SDS011;10146;47.754;9.566;2022-10-16T08:00:48;5.25;;;1.92;;
19969;SDS011;10146;47.754;9.566;2022-10-16T08:03:13;3.17;;;1.80;;
19969;SDS011;10146;47.754;9.566;2022-10-16T08:05:39;5.07;;;1.63;;
19969;SDS011;10146;47.754;9.566;2022-10-16T08:08:05;4.15;;;1.80;;
19969;SDS011;10146;47.754;9.566;2022-10-16T08:10:30;3.38;;;1.67;;
19969;SDS011;10146;47.754;9.566;2022-10-16T08:12:56;3.72;;;1.50;;
19969;SDS011;10146;47.754;9.566;2022-10-16T08:15:22;2.58;;;1.50;;
19969;SDS011;10146;47.754;9.566;2022-10-16T08:17:55;5.03;;;1.70;;
19969;SDS011;10146;47.754;9.566;2022-10-16T08:20:29;4.10;;;1.50;;
19969;SDS011;10146;47.754;9.566;2022-10-16T08:22:55;4.97;;;1.63;;
19969;SDS011;10146;47.754;9.566;2022-10-16T08:25:21;2.08;;;1.67;;
19969;SDS011;10146;47.754;9.566;2022-10-16T08:27:48;4.50;;;1.80;;
19969;SDS011;10146;47.754;9.566;2022-10-16T08:30:14;5.88;;;1.58;;
19969;SDS011;10146;47.754;9.566;2022-10-16T08:32:40;7.32;;;1.80;;
19969;SDS011;10146;47.754;9.566;2022-10-16T08:35:07;3.55;;;1.42;;
19969;SDS011;10146;47.754;9.566;2022-10-16T08:37:34;1.83;;;1.67;;
19969;SDS011;10146;47.754;9.566;2022-10-16T08:40:00;4.53;;;1.77;;
19969;SDS011;10146;47.754;9.566;2022-10-16T08:51:12;5.75;;;1.95;;
19969;SDS011;10146;47.754;9.566;2022-10-16T08:54:04;1.75;;;1.35;;
19969;SDS011;10146;47.754;9.566;2022-10-16T08:56:46;3.47;;;1.30;;
19969;SDS011;10146;47.754;9.566;2022-10-16T08:59:11;2.50;;;1.38;;
19969;SDS011;10146;47.754;9.566;2022-10-16T09:01:41;3.15;;;1.38;;
19969;SDS011;10146;47.754;9.566;2022-10-16T09:07:04;5.13;;;1.40;;
19969;SDS011;10146;47.754;9.566;2022-10-16T09:09:56;2.92;;;1.40;;
19969;SDS011;10146;47.754;9.566;2022-10-16T09:18:41;2.35;;;1.20;;
19969;SDS011;10146;47.754;9.566;2022-10-16T09:21:31;4.13;;;1.50;;
19969;SDS011;10146;47.754;9.566;2022-10-16T09:24:16;1.63;;;1.25;;
19969;SDS011;10146;47.754;9.566;2022-10-16T09:26:45;2.75;;;1.40;;
19969;SDS011;10146;47.754;9.566;2022-10-16T09:29:12;2.42;;;1.80;;
19969;SDS011;10146;47.754;9.566;2022-10-16T09:31:38;3.92;;;1.40;;
19969;SDS011;10146;47.754;9.566;2022-10-16T09:34:04;9.70;;;2.22;;
19969;SDS011;10146;47.754;9.566;2022-10-16T09:36:40;3.30;;;1.67;;
19969;SDS011;10146;47.754;9.566;2022-10-16T09:39:10;2.85;;;1.52;;
19969;SDS011;10146;47.754;9.566;2022-10-16T09:41:37;3.47;;;1.30;;
19969;SDS011;10146;47.754;9.566;2022-10-16T09:44:06;4.25;;;1.30;;
19969;SDS011;10146;47.754;9.566;2022-10-16T09:49:58;3.58;;;1.40;;
19969;SDS011;10146;47.754;9.566;2022-10-16T09:52:31;3.35;;;2.00;;
19969;SDS011;10146;47.754;9.566;2022-10-16T09:54:58;2.95;;;1.88;;
19969;SDS011;10146;47.754;9.566;2022-10-16T09:57:26;3.35;;;1.80;;
19969;SDS011;10146;47.754;9.566;2022-10-16T09:59:52;4.18;;;1.70;;
19969;SDS011;10146;47.754;9.566;2022-10-16T10:02:29;6.47;;;1.70;;
19969;SDS011;10146;47.754;9.566;2022-10-16T10:04:58;3.63;;;1.60;;
19969;SDS011;10146;47.754;9.566;2022-10-16T10:07:25;3.97;;;1.70;;
19969;SDS011;10146;47.754;9.566;2022-10-16T10:09:53;4.38;;;1.92;;
19969;SDS011;10146;47.754;9.566;2022-10-16T10:12:28;6.70;;;1.50;;
19969;SDS011;10146;47.754;9.566;2022-10-16T10:15:06;2.38;;;1.70;;
19969;SDS011;10146;47.754;9.566;2022-10-16T10:17:45;5.45;;;1.48;;
19969;SDS011;10146;47.754;9.566;2022-10-16T10:20:24;2.15;;;1.48;;
19969;SDS011;10146;47.754;9.566;2022-10-16T10:22:52;2.63;;;1.30;;
19969;SDS011;10146;47.754;9.566;2022-10-16T10:31:03;3.45;;;1.60;;
19969;SDS011;10146;47.754;9.566;2022-10-16T10:39:04;4.55;;;1.55;;
19969;SDS011;10146;47.754;9.566;2022-10-16T10:46:57;2.78;;;1.40;;
19969;SDS011;10146;47.754;9.566;2022-10-16T10:52:41;1.27;;;1.15;;
19969;SDS011;10146;47.754;9.566;2022-10-16T10:58:12;2.53;;;1.40;;
19969;SDS011;10146;47.754;9.566;2022-10-16T11:05:58;2.65;;;1.20;;
19969;SDS011;10146;47.754;9.566;2022-10-16T11:11:23;3.90;;;1.30;;
19969;SDS011;10146;47.754;9.566;2022-10-16T11:13:59;2.50;;;1.27;;
19969;SDS011;10146;47.754;9.566;2022-10-16T11:16:38;4.05;;;1.23;;
19969;SDS011;10146;47.754;9.566;2022-10-16T11:19:18;1.33;;;1.02;;
19969;SDS011;10146;47.754;9.566;2022-10-16T11:27:07;4.28;;;1.30;;
19969;SDS011;10146;47.754;9.566;2022-10-16T11:29:35;3.67;;;0.98;;
19969;SDS011;10146;47.754;9.566;2022-10-16T11:32:18;2.72;;;0.95;;
19969;SDS011;10146;47.754;9.566;2022-10-16T11:34:50;1.20;;;0.80;;
19969;SDS011;10146;47.754;9.566;2022-10-16T11:37:21;2.97;;;1.00;;
19969;SDS011;10146;47.754;9.566;2022-10-16T11:39:52;4.47;;;1.40;;
19969;SDS011;10146;47.754;9.566;2022-10-16T11:44:57;2.53;;;0.80;;
19969;SDS011;10146;47.754;9.566;2022-10-16T11:47:33;1.70;;;0.75;;
19969;SDS011;10146;47.754;9.566;2022-10-16T11:52:48;1.00;;;0.90;;
19969;SDS011;10146;47.754;9.566;2022-10-16T11:55:19;2.40;;;1.10;;
19969;SDS011;10146;47.754;9.566;2022-10-16T11:57:49;5.95;;;1.30;;
19969;SDS011;10146;47.754;9.566;2022-10-16T12:00:20;4.15;;;0.88;;
19969;SDS011;10146;47.754;9.566;2022-10-16T12:03:09;1.42;;;1.17;;
19969;SDS011;10146;47.754;9.566;2022-10-16T12:08:57;0.80;;;0.80;;
19969;SDS011;10146;47.754;9.566;2022-10-16T12:16:38;2.78;;;0.82;;
19969;SDS011;10146;47.754;9.566;2022-10-16T12:19:25;1.73;;;0.80;;
19969;SDS011;10146;47.754;9.566;2022-10-16T12:21:54;0.80;;;0.60;;
19969;SDS011;10146;47.754;9.566;2022-10-16T12:24:35;1.35;;;0.77;;
19969;SDS011;10146;47.754;9.566;2022-10-16T12:27:04;2.35;;;0.82;;
19969;SDS011;10146;47.754;9.566;2022-10-16T12:32:20;0.60;;;0.60;;
19969;SDS011;10146;47.754;9.566;2022-10-16T12:35:00;1.52;;;0.80;;
19969;SDS011;10146;47.754;9.566;2022-10-16T12:37:34;2.92;;;0.70;;
19969;SDS011;10146;47.754;9.566;2022-10-16T12:42:51;0.90;;;0.50;;
19969;SDS011;10146;47.754;9.566;2022-10-16T12:45:27;5.60;;;0.98;;
19969;SDS011;10146;47.754;9.566;2022-10-16T12:47:59;3.03;;;0.70;;
19969;SDS011;10146;47.754;9.566;2022-10-16T12:50:28;5.55;;;0.80;;
19969;SDS011;10146;47.754;9.566;2022-10-16T12:52:56;5.82;;;0.98;;
19969;SDS011;10146;47.754;9.566;2022-10-16T12:55:23;3.35;;;0.88;;
19969;SDS011;10146;47.754;9.566;2022-10-16T12:57:57;3.95;;;0.73;;
19969;SDS011;10146;47.754;9.566;2022-10-16T13:00:45;7.63;;;1.00;;
19969;SDS011;10146;47.754;9.566;2022-10-16T13:15:19;5.10;;;1.00;;
19969;SDS011;10146;47.754;9.566;2022-10-16T13:18:14;1.98;;;0.90;;
19969;SDS011;10146;47.754;9.566;2022-10-16T13:26:58;1.25;;;0.80;;
19969;SDS011;10146;47.754;9.566;2022-10-16T13:29:36;3.15;;;0.90;;
19969;SDS011;10146;47.754;9.566;2022-10-16T13:32:10;3.95;;;0.88;;
19969;SDS011;10146;47.754;9.566;2022-10-16T13:34:45;2.75;;;0.80;;
19969;SDS011;10146;47.754;9.566;2022-10-16T13:37:18;2.35;;;0.93;;
19969;SDS011;10146;47.754;9.566;2022-10-16T13:39:46;4.35;;;0.80;;
19969;SDS011;10146;47.754;9.566;2022-10-16T13:42:13;1.92;;;0.60;;
19969;SDS011;10146;47.754;9.566;2022-10-16T13:44:47;2.20;;;1.25;;
19969;SDS011;10146;47.754;9.566;2022-10-16T13:47:19;5.78;;;0.93;;
19969;SDS011;10146;47.754;9.566;2022-10-16T13:49:59;12.32;;;1.35;;
19969;SDS011;10146;47.754;9.566;2022-10-16T13:52:26;12.43;;;1.02;;
19969;SDS011;10146;47.754;9.566;2022-10-16T13:54:52;5.82;;;1.20;;
19969;SDS011;10146;47.754;9.566;2022-10-16T13:57:18;18.60;;;1.67;;
19969;SDS011;10146;47.754;9.566;2022-10-16T13:59:48;16.90;;;1.90;;
19969;SDS011;10146;47.754;9.566;2022-10-16T14:05:00;10.13;;;1.10;;
19969;SDS011;10146;47.754;9.566;2022-10-16T14:07:29;4.10;;;1.27;;
19969;SDS011;10146;47.754;9.566;2022-10-16T14:10:00;24.77;;;2.22;;
19969;SDS011;10146;47.754;9.566;2022-10-16T14:12:45;15.93;;;1.45;;
19969;SDS011;10146;47.754;9.566;2022-10-16T14:15:20;7.20;;;1.25;;
19969;SDS011;10146;47.754;9.566;2022-10-16T14:17:46;6.85;;;1.10;;
19969;SDS011;10146;47.754;9.566;2022-10-16T14:20:16;7.57;;;1.27;;
19969;SDS011;10146;47.754;9.566;2022-10-16T14:22:42;12.43;;;1.10;;
19969;SDS011;10146;47.754;9.566;2022-10-16T14:33:25;14.60;;;1.85;;
19969;SDS011;10146;47.754;9.566;2022-10-16T14:39:03;12.23;;;1.30;;
19969;SDS011;10146;47.754;9.566;2022-10-16T14:41:27;11.15;;;1.40;;
19969;SDS011;10146;47.754;9.566;2022-10-16T14:43:55;10.93;;;1.95;;
19969;SDS011;10146;47.754;9.566;2022-10-16T14:46:35;6.78;;;1.40;;
19969;SDS011;10146;47.754;9.566;2022-10-16T14:51:29;2.58;;;0.80;;
19969;SDS011;10146;47.754;9.566;2022-10-16T14:53:55;7.95;;;1.23;;
19969;SDS011;10146;47.754;9.566;2022-10-16T14:56:22;6.20;;;1.00;;
19969;SDS011;10146;47.754;9.566;2022-10-16T14:58:50;8.50;;;1.65;;
19969;SDS011;10146;47.754;9.566;2022-10-16T15:01:17;6.57;;;1.30;;
19969;SDS011;10146;47.754;9.566;2022-10-16T15:03:43;2.38;;;0.80;;
19969;SDS011;10146;47.754;9.566;2022-10-16T15:06:11;4.15;;;0.80;;
19969;SDS011;10146;47.754;9.566;2022-10-16T15:08:41;6.15;;;0.75;;
19969;SDS011;10146;47.754;9.566;2022-10-16T15:11:13;1.15;;;0.70;;
19969;SDS011;10146;47.754;9.566;2022-10-16T15:13:41;2.35;;;0.73;;
19969;SDS011;10146;47.754;9.566;2022-10-16T15:16:10;1.95;;;0.80;;
19969;SDS011;10146;47.754;9.566;2022-10-16T15:18:37;5.03;;;1.00;;
19969;SDS011;10146;47.754;9.566;2022-10-16T15:21:03;6.25;;;0.82;;
19969;SDS011;10146;47.754;9.566;2022-10-16T15:23:29;5.70;;;1.05;;
19969;SDS011;10146;47.754;9.566;2022-10-16T15:25:55;1.50;;;0.90;;
19969;SDS011;10146;47.754;9.566;2022-10-16T15:28:21;1.42;;;1.05;;
19969;SDS011;10146;47.754;9.566;2022-10-16T15:30:50;0.80;;;0.80;;
19969;SDS011;10146;47.754;9.566;2022-10-16T15:33:18;1.98;;;0.90;;
19969;SDS011;10146;47.754;9.566;2022-10-16T15:35:46;1.33;;;0.93;;
19969;SDS011;10146;47.754;9.566;2022-10-16T15:38:13;1.65;;;0.70;;
19969;SDS011;10146;47.754;9.566;2022-10-16T15:40:40;3.47;;;0.93;;
19969;SDS011;10146;47.754;9.566;2022-10-16T15:43:06;1.15;;;0.90;;
19969;SDS011;10146;47.754;9.566;2022-10-16T15:45:33;0.85;;;0.80;;
19969;SDS011;10146;47.754;9.566;2022-10-16T15:47:58;3.58;;;0.85;;
19969;SDS011;10146;47.754;9.566;2022-10-16T15:50:24;4.97;;;1.10;;
19969;SDS011;10146;47.754;9.566;2022-10-16T15:52:50;2.03;;;0.80;;
19969;SDS011;10146;47.754;9.566;2022-10-16T15:55:17;4.40;;;0.90;;
19969;SDS011;10146;47.754;9.566;2022-10-16T15:57:43;1.95;;;0.90;;
19969;SDS011;10146;47.754;9.566;2022-10-16T16:00:14;5.10;;;1.10;;
19969;SDS011;10146;47.754;9.566;2022-10-16T16:02:42;5.05;;;1.10;;
19969;SDS011;10146;47.754;9.566;2022-10-16T16:05:09;3.35;;;1.13;;
19969;SDS011;10146;47.754;9.566;2022-10-16T16:07:36;4.78;;;1.17;;
19969;SDS011;10146;47.754;9.566;2022-10-16T16:10:03;3.25;;;1.00;;
19969;SDS011;10146;47.754;9.566;2022-10-16T16:12:30;7.55;;;1.23;;
19969;SDS011;10146;47.754;9.566;2022-10-16T16:14:55;1.42;;;1.00;;
19969;SDS011;10146;47.754;9.566;2022-10-16T16:17:21;3.50;;;1.13;;
19969;SDS011;10146;47.754;9.566;2022-10-16T16:19:47;1.85;;;0.95;;
19969;SDS011;10146;47.754;9.566;2022-10-16T16:22:12;4.60;;;1.10;;
19969;SDS011;10146;47.754;9.566;2022-10-16T16:24:38;1.25;;;1.10;;
19969;SDS011;10146;47.754;9.566;2022-10-16T16:27:04;1.98;;;1.17;;
19969;SDS011;10146;47.754;9.566;2022-10-16T16:29:29;12.75;;;1.83;;
19969;SDS011;10146;47.754;9.566;2022-10-16T16:31:55;3.88;;;1.38;;
19969;SDS011;10146;47.754;9.566;2022-10-16T16:34:23;7.15;;;1.13;;
19969;SDS011;10146;47.754;9.566;2022-10-16T16:36:50;5.75;;;1.27;;
19969;SDS011;10146;47.754;9.566;2022-10-16T16:39:16;2.90;;;1.10;;
19969;SDS011;10146;47.754;9.566;2022-10-16T16:41:42;3.80;;;1.20;;
19969;SDS011;10146;47.754;9.566;2022-10-16T16:44:08;2.38;;;1.25;;
19969;SDS011;10146;47.754;9.566;2022-10-16T16:46:35;6.22;;;1.50;;
19969;SDS011;10146;47.754;9.566;2022-10-16T16:49:02;8.70;;;1.40;;
19969;SDS011;10146;47.754;9.566;2022-10-16T16:51:28;6.90;;;1.48;;
19969;SDS011;10146;47.754;9.566;2022-10-16T16:53:54;3.13;;;1.13;;
19969;SDS011;10146;47.754;9.566;2022-10-16T16:56:21;3.38;;;1.30;;
19969;SDS011;10146;47.754;9.566;2022-10-16T16:58:48;4.10;;;1.20;;
19969;SDS011;10146;47.754;9.566;2022-10-16T17:01:16;3.38;;;1.23;;